sensor_id;sensor_type;location;lat;lon;timestamp;pressure;altitude;pressure_sealevel;temperature;humidity
19114;BME280;9689;51.052;13.772;2022-08-23T00:03:24;100266.88;;;15.34;100.00
19114;BME280;9689;51.052;13.772;2022-08-23T00:08:25;100259.72;;;15.43;100.00
19114;BME280;9689;51.052;13.772;2022-08-23T00:13:26;100257.91;;;15.45;100.00
19114;BME280;9689;51.052;13.772;2022-08-23T00:18:48;100251.44;;;15.31;100.00
19114;BME280;9689;51.052;13.772;2022-08-23T00:23:48;100252.31;;;15.32;100.00
19114;BME280;9689;51.052;13.772;2022-08-23T00:28:49;100256.72;;;15.28;100.00
19114;BME280;9689;51.052;13.772;2022-08-23T00:33:51;100257.38;;;15.35;100.00
19114;BME280;9689;51.052;13.772;2022-08-23T00:38:52;100254.84;;;15.33;100.00
19114;BME280;9689;51.052;13.772;2022-08-23T00:43:53;100251.38;;;15.34;100.00
19114;BME280;9689;51.052;13.772;2022-08-23T00:49:17;100247.13;;;15.32;100.00
19114;BME280;9689;51.052;13.772;2022-08-23T00:54:19;100245.59;;;15.26;100.00
19114;BME280;9689;51.052;13.772;2022-08-23T00:59:22;100241.91;;;15.33;100.00
19114;BME280;9689;51.052;13.772;2022-08-23T01:04:25;100238.47;;;15.33;100.00
19114;BME280;9689;51.052;13.772;2022-08-23T01:09:27;100240.19;;;15.32;100.00
19114;BME280;9689;51.052;13.772;2022-08-23T01:14:31;100245.47;;;15.29;100.00
19114;BME280;9689;51.052;13.772;2022-08-23T01:19:36;100232.75;;;15.23;100.00
19114;BME280;9689;51.052;13.772;2022-08-23T01:24:40;100243.09;;;15.23;100.00
19114;BME280;9689;51.052;13.772;2022-08-23T01:30:06;100232.78;;;15.21;100.00
19114;BME280;9689;51.052;13.772;2022-08-23T01:35:08;100231.25;;;15.16;100.00
19114;BME280;9689;51.052;13.772;2022-08-23T01:40:12;100237.88;;;15.25;100.00
19114;BME280;9689;51.052;13.772;2022-08-23T01:45:13;100241.41;;;15.22;100.00
19114;BME280;9689;51.052;13.772;2022-08-23T01:50:16;100238.78;;;15.24;100.00
19114;BME280;9689;51.052;13.772;2022-08-23T01:55:19;100246.69;;;15.19;100.00
19114;BME280;9689;51.052;13.772;2022-08-23T02:00:23;100240.66;;;15.18;100.00
19114;BME280;9689;51.052;13.772;2022-08-23T02:05:24;100245.69;;;15.23;100.00
19114;BME280;9689;51.052;13.772;2022-08-23T02:10:27;100243.88;;;15.25;100.00
19114;BME280;9689;51.052;13.772;2022-08-23T02:15:28;100253.75;;;15.14;100.00
19114;BME280;9689;51.052;13.772;2022-08-23T02:20:30;100247.66;;;15.15;100.00
19114;BME280;9689;51.052;13.772;2022-08-23T02:25:32;100249.41;;;15.14;100.00
19114;BME280;9689;51.052;13.772;2022-08-23T02:30:33;100251.75;;;15.22;100.00
19114;BME280;9689;51.052;13.772;2022-08-23T02:35:35;100248.50;;;15.15;100.00
19114;BME280;9689;51.052;13.772;2022-08-23T02:40:39;100249.47;;;15.13;100.00
19114;BME280;9689;51.052;13.772;2022-08-23T02:45:40;100253.81;;;15.11;100.00
19114;BME280;9689;51.052;13.772;2022-08-23T02:50:41;100246.72;;;15.17;100.00
19114;BME280;9689;51.052;13.772;2022-08-23T02:55:45;100247.63;;;15.16;100.00
19114;BME280;9689;51.052;13.772;2022-08-23T03:00:46;100253.63;;;15.17;100.00
19114;BME280;9689;51.052;13.772;2022-08-23T03:05:47;100259.69;;;15.16;100.00
19114;BME280;9689;51.052;13.772;2022-08-23T03:10:52;100257.91;;;15.18;100.00
19114;BME280;9689;51.052;13.772;2022-08-23T03:15:53;100265.66;;;15.18;100.00
19114;BME280;9689;51.052;13.772;2022-08-23T03:20:53;100263.19;;;15.15;100.00
19114;BME280;9689;51.052;13.772;2022-08-23T03:25:57;100255.44;;;15.15;100.00
19114;BME280;9689;51.052;13.772;2022-08-23T03:31:03;100269.81;;;15.24;100.00
19114;BME280;9689;51.052;13.772;2022-08-23T03:36:11;100268.97;;;15.23;100.00
19114;BME280;9689;51.052;13.772;2022-08-23T03:41:13;100269.00;;;15.21;100.00
19114;BME280;9689;51.052;13.772;2022-08-23T03:46:16;100267.16;;;15.25;100.00
19114;BME280;9689;51.052;13.772;2022-08-23T03:51:29;100279.22;;;15.26;100.00
19114;BME280;9689;51.052;13.772;2022-08-23T03:56:35;100280.09;;;15.25;100.00
19114;BME280;9689;51.052;13.772;2022-08-23T04:01:37;100285.28;;;15.25;100.00
19114;BME280;9689;51.052;13.772;2022-08-23T04:06:37;100287.78;;;15.28;100.00
19114;BME280;9689;51.052;13.772;2022-08-23T04:11:40;100289.56;;;15.26;100.00
19114;BME280;9689;51.052;13.772;2022-08-23T04:16:41;100279.13;;;15.29;100.00
19114;BME280;9689;51.052;13.772;2022-08-23T04:21:49;100284.34;;;15.28;100.00
19114;BME280;9689;51.052;13.772;2022-08-23T04:26:54;100285.28;;;15.25;100.00
19114;BME280;9689;51.052;13.772;2022-08-23T04:31:55;100297.19;;;15.31;100.00
19114;BME280;9689;51.052;13.772;2022-08-23T04:36:56;100296.25;;;15.33;100.00
19114;BME280;9689;51.052;13.772;2022-08-23T04:42:00;100300.22;;;15.44;100.00
19114;BME280;9689;51.052;13.772;2022-08-23T04:47:22;100306.09;;;15.49;100.00
19114;BME280;9689;51.052;13.772;2022-08-23T04:52:25;100307.59;;;15.56;100.00
19114;BME280;9689;51.052;13.772;2022-08-23T04:57:29;100305.91;;;15.55;100.00
19114;BME280;9689;51.052;13.772;2022-08-23T05:02:30;100302.22;;;15.62;100.00
19114;BME280;9689;51.052;13.772;2022-08-23T05:07:31;100308.19;;;15.65;100.00
19114;BME280;9689;51.052;13.772;2022-08-23T05:12:44;100312.19;;;15.75;100.00
19114;BME280;9689;51.052;13.772;2022-08-23T05:17:46;100319.41;;;15.92;100.00
19114;BME280;9689;51.052;13.772;2022-08-23T05:22:48;100317.03;;;15.84;100.00
19114;BME280;9689;51.052;13.772;2022-08-23T05:27:58;100314.25;;;15.90;100.00
19114;BME280;9689;51.052;13.772;2022-08-23T05:33:00;100321.38;;;15.84;100.00
19114;BME280;9689;51.052;13.772;2022-08-23T05:38:06;100332.22;;;15.97;100.00
19114;BME280;9689;51.052;13.772;2022-08-23T05:43:08;100329.25;;;16.08;100.00
19114;BME280;9689;51.052;13.772;2022-08-23T05:48:09;100329.78;;;16.17;100.00
19114;BME280;9689;51.052;13.772;2022-08-23T05:53:17;100328.63;;;16.26;99.87
19114;BME280;9689;51.052;13.772;2022-08-23T05:58:20;100329.56;;;16.24;99.62
19114;BME280;9689;51.052;13.772;2022-08-23T06:03:22;100334.63;;;16.27;99.59
19114;BME280;9689;51.052;13.772;2022-08-23T06:08:23;100334.63;;;16.27;99.08
19114;BME280;9689;51.052;13.772;2022-08-23T06:13:26;100344.41;;;16.19;99.70
19114;BME280;9689;51.052;13.772;2022-08-23T06:18:27;100352.06;;;16.22;99.44
19114;BME280;9689;51.052;13.772;2022-08-23T06:23:45;100347.00;;;16.19;99.92
19114;BME280;9689;51.052;13.772;2022-08-23T06:28:51;100340.50;;;16.32;98.60
19114;BME280;9689;51.052;13.772;2022-08-23T06:33:52;100338.31;;;16.45;98.47
19114;BME280;9689;51.052;13.772;2022-08-23T06:39:11;100340.75;;;16.50;98.11
19114;BME280;9689;51.052;13.772;2022-08-23T06:44:28;100339.06;;;16.49;98.08
19114;BME280;9689;51.052;13.772;2022-08-23T06:49:49;100344.31;;;16.47;97.59
19114;BME280;9689;51.052;13.772;2022-08-23T06:55:17;100357.84;;;16.55;96.56
19114;BME280;9689;51.052;13.772;2022-08-23T07:00:49;100361.72;;;16.67;95.51
19114;BME280;9689;51.052;13.772;2022-08-23T07:06:05;100370.50;;;16.63;94.70
19114;BME280;9689;51.052;13.772;2022-08-23T07:11:08;100369.94;;;16.55;95.33
19114;BME280;9689;51.052;13.772;2022-08-23T07:16:13;100375.94;;;16.81;94.61
19114;BME280;9689;51.052;13.772;2022-08-23T07:21:16;100380.06;;;16.87;93.51
19114;BME280;9689;51.052;13.772;2022-08-23T07:26:18;100380.00;;;16.88;93.60
19114;BME280;9689;51.052;13.772;2022-08-23T07:31:23;100387.44;;;16.97;93.80
19114;BME280;9689;51.052;13.772;2022-08-23T07:36:27;100390.66;;;17.06;92.75
19114;BME280;9689;51.052;13.772;2022-08-23T07:41:30;100389.69;;;17.31;90.27
19114;BME280;9689;51.052;13.772;2022-08-23T07:46:35;100379.91;;;17.60;88.59
19114;BME280;9689;51.052;13.772;2022-08-23T07:51:38;100386.44;;;17.70;88.39
19114;BME280;9689;51.052;13.772;2022-08-23T07:56:40;100385.72;;;17.89;87.70
19114;BME280;9689;51.052;13.772;2022-08-23T08:02:02;100397.06;;;17.86;87.31
19114;BME280;9689;51.052;13.772;2022-08-23T08:07:04;100403.22;;;17.84;87.40
19114;BME280;9689;51.052;13.772;2022-08-23T08:12:28;100404.66;;;18.13;86.51
19114;BME280;9689;51.052;13.772;2022-08-23T08:17:38;100399.78;;;18.26;85.71
19114;BME280;9689;51.052;13.772;2022-08-23T08:22:48;100403.03;;;18.31;84.47
19114;BME280;9689;51.052;13.772;2022-08-23T08:28:17;100407.78;;;18.22;85.76
19114;BME280;9689;51.052;13.772;2022-08-23T08:33:19;100408.50;;;18.25;85.51
19114;BME280;9689;51.052;13.772;2022-08-23T08:38:23;100402.22;;;18.09;85.54
19114;BME280;9689;51.052;13.772;2022-08-23T08:43:36;100401.22;;;18.33;85.24
19114;BME280;9689;51.052;13.772;2022-08-23T08:48:46;100399.72;;;18.48;84.23
19114;BME280;9689;51.052;13.772;2022-08-23T08:53:49;100406.22;;;18.17;86.08
19114;BME280;9689;51.052;13.772;2022-08-23T08:59:01;100398.34;;;18.40;85.55
19114;BME280;9689;51.052;13.772;2022-08-23T09:04:05;100406.28;;;18.57;84.14
19114;BME280;9689;51.052;13.772;2022-08-23T09:09:17;100402.38;;;18.87;82.48
19114;BME280;9689;51.052;13.772;2022-08-23T09:14:40;100391.50;;;19.36;81.48
19114;BME280;9689;51.052;13.772;2022-08-23T09:19:44;100401.75;;;19.39;79.41
19114;BME280;9689;51.052;13.772;2022-08-23T09:24:46;100400.00;;;19.77;78.66
19114;BME280;9689;51.052;13.772;2022-08-23T09:29:57;100396.94;;;19.86;77.91
19114;BME280;9689;51.052;13.772;2022-08-23T09:35:08;100397.41;;;19.94;77.97
19114;BME280;9689;51.052;13.772;2022-08-23T09:40:15;100398.50;;;19.90;77.48
19114;BME280;9689;51.052;13.772;2022-08-23T09:45:26;100391.22;;;19.42;79.61
19114;BME280;9689;51.052;13.772;2022-08-23T09:50:38;100403.03;;;19.67;79.18
19114;BME280;9689;51.052;13.772;2022-08-23T09:55:47;100397.22;;;19.62;79.06
19114;BME280;9689;51.052;13.772;2022-08-23T10:01:10;100406.78;;;19.44;79.08
19114;BME280;9689;51.052;13.772;2022-08-23T10:06:28;100408.06;;;19.72;78.36
19114;BME280;9689;51.052;13.772;2022-08-23T10:11:37;100411.59;;;19.52;79.37
19114;BME280;9689;51.052;13.772;2022-08-23T10:16:54;100405.75;;;19.10;81.13
19114;BME280;9689;51.052;13.772;2022-08-23T10:22:06;100407.63;;;18.66;83.68
19114;BME280;9689;51.052;13.772;2022-08-23T10:27:21;100412.09;;;18.63;84.55
19114;BME280;9689;51.052;13.772;2022-08-23T10:32:51;100412.88;;;18.85;84.73
19114;BME280;9689;51.052;13.772;2022-08-23T10:38:10;100417.50;;;18.98;83.67
19114;BME280;9689;51.052;13.772;2022-08-23T10:43:26;100419.84;;;19.04;83.13
19114;BME280;9689;51.052;13.772;2022-08-23T10:48:35;100414.59;;;19.25;81.31
19114;BME280;9689;51.052;13.772;2022-08-23T10:53:47;100415.03;;;19.15;81.04
19114;BME280;9689;51.052;13.772;2022-08-23T10:58:51;100422.34;;;19.07;80.63
19114;BME280;9689;51.052;13.772;2022-08-23T11:04:00;100420.91;;;19.00;80.28
19114;BME280;9689;51.052;13.772;2022-08-23T11:09:28;100425.97;;;19.03;80.33
19114;BME280;9689;51.052;13.772;2022-08-23T11:14:35;100422.88;;;19.14;80.35
19114;BME280;9689;51.052;13.772;2022-08-23T11:19:50;100422.69;;;19.19;80.16
19114;BME280;9689;51.052;13.772;2022-08-23T11:24:59;100428.78;;;19.18;79.67
19114;BME280;9689;51.052;13.772;2022-08-23T11:30:43;100433.47;;;19.11;78.92
19114;BME280;9689;51.052;13.772;2022-08-23T11:35:53;100432.47;;;19.13;79.07
19114;BME280;9689;51.052;13.772;2022-08-23T11:41:11;100430.56;;;19.36;78.64
19114;BME280;9689;51.052;13.772;2022-08-23T11:46:31;100422.03;;;19.52;77.90
19114;BME280;9689;51.052;13.772;2022-08-23T11:51:45;100431.69;;;19.50;77.75
19114;BME280;9689;51.052;13.772;2022-08-23T11:57:00;100426.31;;;19.53;77.96
19114;BME280;9689;51.052;13.772;2022-08-23T12:02:27;100433.81;;;19.41;79.21
19114;BME280;9689;51.052;13.772;2022-08-23T12:07:46;100433.31;;;19.14;80.54
19114;BME280;9689;51.052;13.772;2022-08-23T12:18:24;100436.63;;;18.97;84.58
19114;BME280;9689;51.052;13.772;2022-08-23T12:23:25;100445.75;;;19.07;82.83
19114;BME280;9689;51.052;13.772;2022-08-23T12:28:41;100442.47;;;19.23;83.91
19114;BME280;9689;51.052;13.772;2022-08-23T12:34:02;100442.63;;;19.20;85.22
19114;BME280;9689;51.052;13.772;2022-08-23T12:39:17;100441.72;;;19.00;88.41
19114;BME280;9689;51.052;13.772;2022-08-23T12:44:21;100433.88;;;18.81;88.76
19114;BME280;9689;51.052;13.772;2022-08-23T12:49:31;100431.63;;;18.52;88.82
19114;BME280;9689;51.052;13.772;2022-08-23T12:54:35;100437.16;;;18.44;88.69
19114;BME280;9689;51.052;13.772;2022-08-23T12:59:40;100432.22;;;18.38;90.32
19114;BME280;9689;51.052;13.772;2022-08-23T13:04:44;100427.63;;;18.45;92.22
19114;BME280;9689;51.052;13.772;2022-08-23T13:09:45;100439.38;;;18.54;93.71
19114;BME280;9689;51.052;13.772;2022-08-23T13:14:54;100434.59;;;18.64;95.33
19114;BME280;9689;51.052;13.772;2022-08-23T13:20:17;100437.88;;;18.88;95.98
19114;BME280;9689;51.052;13.772;2022-08-23T13:25:24;100438.50;;;19.14;95.78
19114;BME280;9689;51.052;13.772;2022-08-23T13:30:31;100435.13;;;19.12;91.37
19114;BME280;9689;51.052;13.772;2022-08-23T13:35:38;100438.50;;;19.14;88.23
19114;BME280;9689;51.052;13.772;2022-08-23T13:40:41;100431.19;;;19.22;88.57
19114;BME280;9689;51.052;13.772;2022-08-23T13:45:47;100421.78;;;19.39;86.96
19114;BME280;9689;51.052;13.772;2022-08-23T13:50:50;100430.63;;;19.54;86.26
19114;BME280;9689;51.052;13.772;2022-08-23T13:55:53;100424.50;;;19.55;83.92
19114;BME280;9689;51.052;13.772;2022-08-23T14:00:57;100427.91;;;19.75;81.21
19114;BME280;9689;51.052;13.772;2022-08-23T14:06:00;100429.69;;;19.92;80.97
19114;BME280;9689;51.052;13.772;2022-08-23T14:11:02;100426.06;;;19.94;80.84
19114;BME280;9689;51.052;13.772;2022-08-23T14:16:05;100423.44;;;19.96;81.25
19114;BME280;9689;51.052;13.772;2022-08-23T14:21:28;100419.53;;;20.05;79.15
19114;BME280;9689;51.052;13.772;2022-08-23T14:26:29;100425.53;;;20.24;79.01
19114;BME280;9689;51.052;13.772;2022-08-23T14:31:30;100425.97;;;20.50;77.37
19114;BME280;9689;51.052;13.772;2022-08-23T14:36:32;100433.06;;;20.64;76.52
19114;BME280;9689;51.052;13.772;2022-08-23T14:41:33;100422.13;;;20.40;77.07
19114;BME280;9689;51.052;13.772;2022-08-23T14:46:34;100431.50;;;20.44;76.33
19114;BME280;9689;51.052;13.772;2022-08-23T14:51:41;100422.81;;;20.44;76.44
19114;BME280;9689;51.052;13.772;2022-08-23T14:56:44;100422.63;;;20.47;76.32
19114;BME280;9689;51.052;13.772;2022-08-23T15:01:46;100420.25;;;20.60;75.55
19114;BME280;9689;51.052;13.772;2022-08-23T15:06:50;100415.81;;;20.96;75.04
19114;BME280;9689;51.052;13.772;2022-08-23T15:12:11;100414.47;;;21.21;74.23
19114;BME280;9689;51.052;13.772;2022-08-23T15:17:35;100413.31;;;21.26;72.99
19114;BME280;9689;51.052;13.772;2022-08-23T15:22:37;100412.47;;;21.10;73.27
19114;BME280;9689;51.052;13.772;2022-08-23T15:27:43;100409.25;;;21.04;73.62
19114;BME280;9689;51.052;13.772;2022-08-23T15:32:45;100418.88;;;21.04;73.62
19114;BME280;9689;51.052;13.772;2022-08-23T15:37:56;100416.06;;;21.07;73.70
19114;BME280;9689;51.052;13.772;2022-08-23T15:42:57;100418.75;;;20.89;73.61
19114;BME280;9689;51.052;13.772;2022-08-23T15:47:59;100415.41;;;20.70;75.17
19114;BME280;9689;51.052;13.772;2022-08-23T15:53:04;100408.53;;;20.85;74.87
19114;BME280;9689;51.052;13.772;2022-08-23T15:58:05;100412.09;;;21.00;74.02
19114;BME280;9689;51.052;13.772;2022-08-23T16:03:06;100412.41;;;21.27;72.95
19114;BME280;9689;51.052;13.772;2022-08-23T16:08:24;100396.09;;;21.54;71.55
19114;BME280;9689;51.052;13.772;2022-08-23T16:13:26;100391.31;;;21.93;69.64
19114;BME280;9689;51.052;13.772;2022-08-23T16:18:27;100385.84;;;22.12;68.89
19114;BME280;9689;51.052;13.772;2022-08-23T16:23:29;100387.53;;;22.13;68.80
19114;BME280;9689;51.052;13.772;2022-08-23T16:28:30;100382.03;;;21.88;69.26
19114;BME280;9689;51.052;13.772;2022-08-23T16:33:31;100383.81;;;22.18;68.48
19114;BME280;9689;51.052;13.772;2022-08-23T16:38:33;100391.06;;;22.72;67.77
19114;BME280;9689;51.052;13.772;2022-08-23T16:43:34;100385.25;;;22.52;67.42
19114;BME280;9689;51.052;13.772;2022-08-23T16:48:35;100392.78;;;21.83;69.40
19114;BME280;9689;51.052;13.772;2022-08-23T16:53:37;100393.78;;;21.34;71.33
19114;BME280;9689;51.052;13.772;2022-08-23T16:58:38;100393.19;;;21.28;71.87
19114;BME280;9689;51.052;13.772;2022-08-23T17:03:40;100393.69;;;21.03;73.52
19114;BME280;9689;51.052;13.772;2022-08-23T17:08:42;100399.63;;;20.89;74.13
19114;BME280;9689;51.052;13.772;2022-08-23T17:13:44;100403.28;;;20.69;75.06
19114;BME280;9689;51.052;13.772;2022-08-23T17:18:45;100418.72;;;20.56;76.17
19114;BME280;9689;51.052;13.772;2022-08-23T17:23:53;100417.56;;;20.61;75.48
19114;BME280;9689;51.052;13.772;2022-08-23T17:28:54;100412.63;;;21.39;73.34
19114;BME280;9689;51.052;13.772;2022-08-23T17:33:55;100413.09;;;21.78;70.83
19114;BME280;9689;51.052;13.772;2022-08-23T17:39:05;100414.91;;;21.77;70.61
19114;BME280;9689;51.052;13.772;2022-08-23T17:44:06;100414.31;;;21.72;70.18
19114;BME280;9689;51.052;13.772;2022-08-23T17:49:09;100420.91;;;21.15;72.17
19114;BME280;9689;51.052;13.772;2022-08-23T17:54:12;100420.41;;;20.57;74.87
19114;BME280;9689;51.052;13.772;2022-08-23T17:59:14;100430.88;;;20.21;78.32
19114;BME280;9689;51.052;13.772;2022-08-23T18:04:15;100439.41;;;19.88;81.01
19114;BME280;9689;51.052;13.772;2022-08-23T18:09:18;100445.75;;;19.82;81.79
19114;BME280;9689;51.052;13.772;2022-08-23T18:14:19;100454.31;;;19.67;82.93
19114;BME280;9689;51.052;13.772;2022-08-23T18:19:22;100463.34;;;19.60;83.35
19114;BME280;9689;51.052;13.772;2022-08-23T18:24:25;100471.72;;;19.47;84.28
19114;BME280;9689;51.052;13.772;2022-08-23T18:29:26;100475.09;;;19.49;83.83
19114;BME280;9689;51.052;13.772;2022-08-23T18:34:28;100475.22;;;19.65;84.86
19114;BME280;9689;51.052;13.772;2022-08-23T18:39:30;100493.44;;;19.48;86.36
19114;BME280;9689;51.052;13.772;2022-08-23T18:44:31;100488.63;;;19.38;87.01
19114;BME280;9689;51.052;13.772;2022-08-23T18:49:32;100495.94;;;19.30;87.72
19114;BME280;9689;51.052;13.772;2022-08-23T18:54:35;100503.69;;;19.51;86.86
19114;BME280;9689;51.052;13.772;2022-08-23T18:59:36;100508.41;;;19.42;87.53
19114;BME280;9689;51.052;13.772;2022-08-23T19:04:37;100512.47;;;19.48;87.27
19114;BME280;9689;51.052;13.772;2022-08-23T19:09:39;100513.97;;;19.54;86.82
19114;BME280;9689;51.052;13.772;2022-08-23T19:14:40;100522.13;;;19.46;87.90
19114;BME280;9689;51.052;13.772;2022-08-23T19:19:41;100524.53;;;19.51;88.32
19114;BME280;9689;51.052;13.772;2022-08-23T19:24:43;100523.28;;;19.40;89.19
19114;BME280;9689;51.052;13.772;2022-08-23T19:29:44;100533.38;;;19.47;89.06
19114;BME280;9689;51.052;13.772;2022-08-23T19:34:44;100534.13;;;19.50;89.40
19114;BME280;9689;51.052;13.772;2022-08-23T19:39:47;100545.00;;;19.39;90.33
19114;BME280;9689;51.052;13.772;2022-08-23T19:44:48;100543.72;;;19.29;91.03
19114;BME280;9689;51.052;13.772;2022-08-23T19:49:49;100545.56;;;19.27;90.93
19114;BME280;9689;51.052;13.772;2022-08-23T19:54:51;100546.97;;;19.34;90.61
19114;BME280;9689;51.052;13.772;2022-08-23T20:00:06;100552.03;;;19.37;90.37
19114;BME280;9689;51.052;13.772;2022-08-23T20:05:17;100544.38;;;19.34;90.62
19114;BME280;9689;51.052;13.772;2022-08-23T20:10:20;100553.09;;;19.33;90.83
19114;BME280;9689;51.052;13.772;2022-08-23T20:15:21;100542.97;;;19.27;91.82
19114;BME280;9689;51.052;13.772;2022-08-23T20:20:22;100554.00;;;19.32;91.76
19114;BME280;9689;51.052;13.772;2022-08-23T20:25:24;100558.09;;;19.38;91.22
19114;BME280;9689;51.052;13.772;2022-08-23T20:30:25;100551.81;;;19.23;92.09
19114;BME280;9689;51.052;13.772;2022-08-23T20:35:26;100550.25;;;19.19;92.69
19114;BME280;9689;51.052;13.772;2022-08-23T20:40:28;100554.88;;;19.12;93.29
19114;BME280;9689;51.052;13.772;2022-08-23T20:45:28;100544.03;;;19.02;94.62
19114;BME280;9689;51.052;13.772;2022-08-23T20:50:29;100547.50;;;19.01;94.83
19114;BME280;9689;51.052;13.772;2022-08-23T20:55:31;100550.94;;;19.01;94.98
19114;BME280;9689;51.052;13.772;2022-08-23T21:00:32;100554.44;;;19.02;95.02
19114;BME280;9689;51.052;13.772;2022-08-23T21:05:33;100557.06;;;19.00;95.48
19114;BME280;9689;51.052;13.772;2022-08-23T21:10:36;100563.38;;;18.95;96.15
19114;BME280;9689;51.052;13.772;2022-08-23T21:15:37;100558.31;;;18.92;96.69
19114;BME280;9689;51.052;13.772;2022-08-23T21:20:38;100549.97;;;18.83;97.32
19114;BME280;9689;51.052;13.772;2022-08-23T21:25:40;100565.72;;;18.80;97.26
19114;BME280;9689;51.052;13.772;2022-08-23T21:30:41;100562.47;;;18.75;97.99
19114;BME280;9689;51.052;13.772;2022-08-23T21:35:42;100558.56;;;18.65;99.09
19114;BME280;9689;51.052;13.772;2022-08-23T21:40:44;100549.97;;;18.63;99.09
19114;BME280;9689;51.052;13.772;2022-08-23T21:45:45;100551.75;;;18.62;99.58
19114;BME280;9689;51.052;13.772;2022-08-23T21:50:46;100543.28;;;18.57;99.79
19114;BME280;9689;51.052;13.772;2022-08-23T21:55:48;100543.03;;;18.63;99.31
19114;BME280;9689;51.052;13.772;2022-08-23T22:00:51;100545.16;;;18.53;99.99
19114;BME280;9689;51.052;13.772;2022-08-23T22:05:52;100541.84;;;18.50;100.00
19114;BME280;9689;51.052;13.772;2022-08-23T22:10:54;100538.50;;;18.46;100.00
19114;BME280;9689;51.052;13.772;2022-08-23T22:15:56;100536.03;;;18.43;100.00
19114;BME280;9689;51.052;13.772;2022-08-23T22:20:59;100534.34;;;18.42;100.00
19114;BME280;9689;51.052;13.772;2022-08-23T22:26:03;100533.25;;;18.47;100.00
19114;BME280;9689;51.052;13.772;2022-08-23T22:31:05;100528.88;;;18.48;100.00
19114;BME280;9689;51.052;13.772;2022-08-23T22:36:11;100536.50;;;18.53;100.00
19114;BME280;9689;51.052;13.772;2022-08-23T22:41:18;100537.34;;;18.53;100.00
19114;BME280;9689;51.052;13.772;2022-08-23T22:46:19;100528.63;;;18.54;100.00
19114;BME280;9689;51.052;13.772;2022-08-23T22:51:22;100530.31;;;18.55;100.00
19114;BME280;9689;51.052;13.772;2022-08-23T22:56:26;100519.91;;;18.55;100.00
19114;BME280;9689;51.052;13.772;2022-08-23T23:01:30;100523.44;;;18.54;100.00
19114;BME280;9689;51.052;13.772;2022-08-23T23:06:33;100526.19;;;18.51;100.00
19114;BME280;9689;51.052;13.772;2022-08-23T23:11:35;100521.84;;;18.50;100.00
19114;BME280;9689;51.052;13.772;2022-08-23T23:16:39;100521.13;;;18.46;100.00
19114;BME280;9689;51.052;13.772;2022-08-23T23:21:42;100521.47;;;18.39;100.00
19114;BME280;9689;51.052;13.772;2022-08-23T23:26:45;100532.78;;;18.38;100.00
19114;BME280;9689;51.052;13.772;2022-08-23T23:31:46;100535.91;;;18.46;100.00
19114;BME280;9689;51.052;13.772;2022-08-23T23:36:47;100529.28;;;18.39;100.00
19114;BME280;9689;51.052;13.772;2022-08-23T23:41:50;100523.56;;;18.51;100.00
19114;BME280;9689;51.052;13.772;2022-08-23T23:46:50;100519.09;;;18.55;100.00
19114;BME280;9689;51.052;13.772;2022-08-23T23:51:51;100520.84;;;18.54;100.00
19114;BME280;9689;51.052;13.772;2022-08-23T23:56:54;100516.53;;;18.53;100.00
